ADDS METAR Data INFO
IDs: Format: Raw Decoded Include TAF

Data at: 1750 UTC 21 Oct 2017

KTUS 211653Z 00000KT 10SM CLR 23/07 A3006 RMK AO2 SLP140 T02280072
KTUS 211553Z 18004KT 10SM CLR 20/06 A3004 RMK AO2 SLP135 T02000056
KTUS 211453Z 17006KT 10SM CLR 17/05 A3003 RMK AO2 SLP132 T01670050 53022
KTUS 211353Z 17004KT 10SM CLR 14/04 A2999 RMK AO2 SLP121 T01440039
KTUS 211253Z 20004KT 10SM CLR 14/04 A2997 RMK AO2 SLP113 T01440044
KTUS 211153Z 00000KT 10SM CLR 16/05 A2996 RMK AO2 SLP106 T01560050 10217 20156 53018
KTUS 211053Z 00000KT 10SM CLR 17/04 A2992 RMK AO2 SLP090 T01720044
KTUS 210953Z 09003KT 10SM CLR 17/05 A2990 RMK AO2 SLP085 T01720050
KTUS 210853Z 00000KT 10SM CLR 18/05 A2990 RMK AO2 SLP082 T01830050 58002
KTUS 210753Z 00000KT 10SM CLR 18/06 A2991 RMK AO2 SLP086 T01830061
KTUS 210653Z 20003KT 10SM CLR 21/06 A2991 RMK AO2 SLP086 T02110061 403220178
KTUS 210553Z 27007KT 10SM CLR 22/07 A2991 RMK AO2 SLP083 T02220067 10300 20222 53015
KTUS 210453Z 28005KT 10SM CLR 23/06 A2989 RMK AO2 SLP078 T02280061
KTUS 210353Z 26007KT 10SM CLR 24/04 A2987 RMK AO2 SLP074 T02390039
KTUS 210253Z 29007KT 10SM CLR 26/06 A2986 RMK AO2 SLP071 T02560061 53017
KTUS 210153Z 25007KT 10SM CLR 27/05 A2983 RMK AO2 SLP062 T02670050
KTUS 210053Z 25010KT 10SM CLR 28/04 A2981 RMK AO2 SLP054 T02830044
KTUS 202353Z 25016KT 10SM CLR 30/03 A2981 RMK AO2 SLP049 T03000033 10322 20289 58009
KTUS 202253Z 26011G19KT 10SM CLR 31/03 A2982 RMK AO2 SLP052 T03110028
KTUS 202153Z 22015G21KT 10SM CLR 32/02 A2983 RMK AO2 PK WND 25026/2114 SLP054 T03170022
KTUS 202053Z 27016G25KT 10SM CLR 32/02 A2984 RMK AO2 PK WND 26027/2032 SLP056 T03170022 56026
KTUS 201953Z 26011G17KT 220V290 10SM CLR 32/03 A2986 RMK AO2 SLP062 T03220028
KTUS 201853Z 35005KT 10SM CLR 30/03 A2989 RMK AO2 SLP075 T03000033
KTUS 201753Z VRB04KT 10SM CLR 29/03 A2992 RMK AO2 SLP085 T02940028 10294 20178 58005
KTUS 201653Z 00000KT 10SM CLR 27/02 A2994 RMK AO2 SLP091 T02720022
KTUS 201553Z 13004KT 10SM CLR 24/03 A2994 RMK AO2 SLP096 T02440033
KTUS 201453Z 14004KT 10SM CLR 21/03 A2993 RMK AO2 SLP095 T02060033 53012
KTUS 201353Z 11003KT 10SM CLR 18/03 A2991 RMK AO2 SLP089 T01830033
KTUS 201253Z 12005KT 10SM CLR 18/03 A2990 RMK AO2 SLP084 T01780028
KTUS 201153Z 12005KT 10SM CLR 19/03 A2989 RMK AO2 SLP079 T01940028 10233 20189 53000
KTUS 201053Z 15009KT 10SM CLR 21/03 A2988 RMK AO2 SLP073 T02060028
KTUS 200953Z 12003KT 10SM CLR 21/02 A2989 RMK AO2 SLP075 T02110022
KTUS 200853Z 15006KT 10SM CLR 22/02 A2989 RMK AO2 SLP076 T02170022 56007
KTUS 200753Z 14006KT 10SM CLR 22/02 A2990 RMK AO2 SLP077 T02220022
KTUS 200653Z 17006KT 10SM CLR 23/03 A2991 RMK AO2 SLP080 T02280028 403440194
KTUS 200553Z AUTO 17006KT 9SM CLR 23/03 A2992 RMK AO2 SLP086 T02280028 10306 20228 51013